createdAt,value
2023-09-26T00:01:18.152Z,14.52
2023-09-26T00:03:44.748Z,14.48
2023-09-26T00:06:24.933Z,14.49
2023-09-26T00:08:56.234Z,14.49
2023-09-26T00:11:22.708Z,14.44
2023-09-26T00:13:50.892Z,14.44
2023-09-26T00:16:17.794Z,14.44
2023-09-26T00:18:44.469Z,14.41
2023-09-26T00:21:13.849Z,14.39
2023-09-26T00:23:40.304Z,14.38
2023-09-26T00:26:08.589Z,14.33
2023-09-26T00:28:38.383Z,14.33
2023-09-26T00:31:06.129Z,14.32
2023-09-26T00:33:33.516Z,14.29
2023-09-26T00:36:11.673Z,14.26
2023-09-26T00:38:38.670Z,14.19
2023-09-26T00:41:07.654Z,14.22
2023-09-26T00:43:36.533Z,14.21
2023-09-26T00:46:06.241Z,14.19
2023-09-26T00:48:33.495Z,14.19
2023-09-26T00:51:00.378Z,14.16
2023-09-26T00:53:28.286Z,14.16
2023-09-26T00:55:56.736Z,14.13
2023-09-26T00:58:24.232Z,14.11
2023-09-26T01:00:56.995Z,14.09
2023-09-26T01:03:23.702Z,14.07
2023-09-26T01:05:50.382Z,14.01
2023-09-26T01:08:17.653Z,13.95
2023-09-26T01:10:44.330Z,14.04
2023-09-26T01:13:11.828Z,13.97
2023-09-26T01:15:40.494Z,14.00
2023-09-26T01:18:14.542Z,13.94
2023-09-26T01:20:45.858Z,13.90
2023-09-26T01:23:14.356Z,13.92
2023-09-26T01:25:41.674Z,13.93
2023-09-26T01:28:09.809Z,13.90
2023-09-26T01:30:38.417Z,13.86
2023-09-26T01:33:09.526Z,13.86
2023-09-26T01:35:36.514Z,13.85
2023-09-26T01:38:02.952Z,13.77
2023-09-26T01:40:29.548Z,13.76
2023-09-26T01:42:56.068Z,13.76
2023-09-26T01:45:22.708Z,13.78
2023-09-26T01:47:51.871Z,13.78
2023-09-26T01:50:20.432Z,13.73
2023-09-26T01:52:47.957Z,13.74
2023-09-26T01:55:20.095Z,13.70
2023-09-26T01:57:46.880Z,13.70
2023-09-26T02:00:15.188Z,13.67
2023-09-26T02:02:43.739Z,13.67
2023-09-26T02:05:11.992Z,13.61
2023-09-26T02:07:38.915Z,13.64
2023-09-26T02:10:06.532Z,13.61
2023-09-26T02:12:36.705Z,13.59
2023-09-26T02:15:09.210Z,13.57
2023-09-26T02:17:42.172Z,13.55
2023-09-26T02:20:14.408Z,13.53
2023-09-26T02:22:52.747Z,13.51
2023-09-26T02:25:21.059Z,13.52
2023-09-26T02:27:48.657Z,13.49
2023-09-26T02:30:19.151Z,13.46
2023-09-26T02:32:45.712Z,13.42
2023-09-26T02:35:14.591Z,13.45
2023-09-26T02:37:41.654Z,13.43
2023-09-26T02:40:11.051Z,13.40
2023-09-26T02:42:46.962Z,13.38
2023-09-26T02:45:14.829Z,13.38
2023-09-26T02:47:42.739Z,13.37
2023-09-26T02:50:10.066Z,13.34
2023-09-26T02:52:38.271Z,13.34
2023-09-26T02:55:05.864Z,13.31
2023-09-26T02:57:34.419Z,13.28
2023-09-26T03:00:08.000Z,13.26
2023-09-26T03:02:34.984Z,13.27
2023-09-26T03:05:01.530Z,13.24
2023-09-26T03:07:28.040Z,13.22
2023-09-26T03:09:54.700Z,13.21
2023-09-26T03:12:21.305Z,13.22
2023-09-26T03:14:47.768Z,13.18
2023-09-26T03:17:15.117Z,13.19
2023-09-26T03:19:41.737Z,13.17
2023-09-26T03:22:08.239Z,13.14
2023-09-26T03:24:34.862Z,13.13
2023-09-26T03:27:01.357Z,13.12
2023-09-26T03:29:27.909Z,13.11
2023-09-26T03:31:54.737Z,13.07
2023-09-26T03:34:21.413Z,13.06
2023-09-26T03:36:48.356Z,13.01
2023-09-26T03:39:14.800Z,13.04
2023-09-26T03:41:41.358Z,12.97
2023-09-26T03:44:08.032Z,12.98
2023-09-26T03:46:34.748Z,13.01
2023-09-26T03:49:01.358Z,12.94
2023-09-26T03:51:27.905Z,12.98
2023-09-26T03:53:54.420Z,12.91
2023-09-26T03:56:20.946Z,12.87
2023-09-26T03:58:47.417Z,12.89
2023-09-26T04:01:16.164Z,12.92
2023-09-26T04:03:47.742Z,12.91
2023-09-26T04:06:14.894Z,12.88
2023-09-26T04:08:41.428Z,12.84
2023-09-26T04:11:17.939Z,12.81
2023-09-26T04:13:45.330Z,12.85
2023-09-26T04:16:12.004Z,12.83
2023-09-26T04:18:38.869Z,12.81
2023-09-26T04:21:11.921Z,12.75
2023-09-26T04:23:39.405Z,12.79
2023-09-26T04:26:16.478Z,12.77
2023-09-26T04:28:43.665Z,12.73
2023-09-26T04:31:18.192Z,12.72
2023-09-26T04:33:46.357Z,12.73
2023-09-26T04:36:12.996Z,12.72
2023-09-26T04:38:39.647Z,12.71
2023-09-26T04:41:06.282Z,12.70
2023-09-26T04:43:33.577Z,12.68
2023-09-26T04:46:00.702Z,12.62
2023-09-26T04:48:27.373Z,12.65
2023-09-26T04:50:55.335Z,12.65
2023-09-26T04:53:23.157Z,12.62
2023-09-26T04:55:50.002Z,12.59
2023-09-26T04:58:16.650Z,12.60
2023-09-26T05:00:43.195Z,12.59
2023-09-26T05:03:09.827Z,12.57
2023-09-26T05:05:36.408Z,12.58
2023-09-26T05:08:03.004Z,12.57
2023-09-26T05:10:29.536Z,12.56
2023-09-26T05:12:56.108Z,12.55
2023-09-26T05:15:22.693Z,12.52
2023-09-26T05:17:51.430Z,12.55
2023-09-26T05:20:18.287Z,12.54
2023-09-26T05:22:47.450Z,12.52
2023-09-26T05:25:14.389Z,12.51
2023-09-26T05:27:41.806Z,12.50
2023-09-26T05:30:12.837Z,12.49
2023-09-26T05:32:40.693Z,12.50
2023-09-26T05:35:08.458Z,12.48
2023-09-26T05:37:35.913Z,12.48
2023-09-26T05:40:08.349Z,12.46
2023-09-26T05:42:36.979Z,12.46
2023-09-26T05:45:09.154Z,12.46
2023-09-26T05:47:36.387Z,12.43
2023-09-26T05:50:04.855Z,12.43
2023-09-26T05:52:31.667Z,12.43
2023-09-26T05:54:58.423Z,12.39
2023-09-26T05:57:28.351Z,12.37
2023-09-26T05:59:54.844Z,12.37
2023-09-26T06:02:21.391Z,12.40
2023-09-26T06:04:47.971Z,12.32
2023-09-26T06:07:15.389Z,12.39
2023-09-26T06:09:53.048Z,12.36
2023-09-26T06:12:24.720Z,12.37
2023-09-26T06:14:51.966Z,12.38
2023-09-26T06:17:19.268Z,12.32
2023-09-26T06:19:48.131Z,12.34
2023-09-26T06:22:16.164Z,12.35
2023-09-26T06:24:43.272Z,12.32
2023-09-26T06:27:09.810Z,12.35
2023-09-26T06:29:40.434Z,12.34
2023-09-26T06:32:07.785Z,12.36
2023-09-26T06:34:35.572Z,12.36
2023-09-26T06:37:03.184Z,12.33
2023-09-26T06:39:31.144Z,12.37
2023-09-26T06:41:58.003Z,12.36
2023-09-26T06:44:24.480Z,12.35
2023-09-26T06:46:53.091Z,12.39
2023-09-26T06:49:19.967Z,12.36
2023-09-26T06:51:46.563Z,12.42
2023-09-26T06:54:13.047Z,12.43
2023-09-26T06:56:39.673Z,12.41
2023-09-26T06:59:06.875Z,12.45
2023-09-26T07:01:34.411Z,12.46
2023-09-26T07:04:01.093Z,12.46
2023-09-26T07:06:27.685Z,12.48
2023-09-26T07:08:56.671Z,12.50
2023-09-26T07:11:23.866Z,12.52
2023-09-26T07:13:50.644Z,12.48
2023-09-26T07:16:17.342Z,12.54
2023-09-26T07:18:44.187Z,12.54
2023-09-26T07:21:11.071Z,12.59
2023-09-26T07:23:38.459Z,12.58
2023-09-26T07:26:12.074Z,12.59
2023-09-26T07:28:42.462Z,12.64
2023-09-26T07:31:11.710Z,12.68
2023-09-26T07:33:39.530Z,12.71
2023-09-26T07:36:07.492Z,12.71
2023-09-26T07:38:34.497Z,12.76
2023-09-26T07:41:01.792Z,12.75
2023-09-26T07:43:33.948Z,12.80
2023-09-26T07:46:08.544Z,12.81
2023-09-26T07:48:36.114Z,12.87
2023-09-26T07:51:04.021Z,12.91
2023-09-26T07:53:30.782Z,12.92
2023-09-26T07:55:57.676Z,12.98
2023-09-26T07:58:24.557Z,13.03
2023-09-26T08:00:51.253Z,13.04
2023-09-26T08:03:17.839Z,13.07
2023-09-26T08:05:44.316Z,13.13
2023-09-26T08:08:10.842Z,13.14
2023-09-26T08:10:39.245Z,13.23
2023-09-26T08:13:09.560Z,13.26
2023-09-26T08:15:36.256Z,13.31
2023-09-26T08:18:04.144Z,13.30
2023-09-26T08:20:30.919Z,13.35
2023-09-26T08:22:57.471Z,13.40
2023-09-26T08:25:24.403Z,13.41
2023-09-26T08:27:50.984Z,13.46
2023-09-26T08:30:17.582Z,13.50
2023-09-26T08:32:44.237Z,13.54
2023-09-26T08:35:11.524Z,13.56
2023-09-26T08:37:39.474Z,13.62
2023-09-26T08:40:07.598Z,13.67
2023-09-26T08:42:38.130Z,13.69
2023-09-26T08:45:06.791Z,13.71
2023-09-26T08:47:34.795Z,13.76
2023-09-26T08:50:01.451Z,13.80
2023-09-26T08:52:28.389Z,13.84
2023-09-26T08:54:55.220Z,13.88
2023-09-26T08:57:22.450Z,13.96
2023-09-26T08:59:49.794Z,14.00
2023-09-26T09:02:16.562Z,14.06
2023-09-26T09:04:44.243Z,14.11
2023-09-26T09:07:12.020Z,14.16
2023-09-26T09:09:58.945Z,14.16
2023-09-26T09:12:25.447Z,14.22
2023-09-26T09:14:51.938Z,14.30
2023-09-26T09:17:18.848Z,14.34
2023-09-26T09:19:50.456Z,14.40
2023-09-26T09:22:22.007Z,14.44
2023-09-26T09:24:56.598Z,14.44
2023-09-26T09:27:30.427Z,14.51
2023-09-26T09:30:10.972Z,14.47
2023-09-26T09:32:37.665Z,14.56
2023-09-26T09:35:05.083Z,14.64
2023-09-26T09:37:31.880Z,14.65
2023-09-26T09:39:59.286Z,14.71
2023-09-26T09:42:26.034Z,14.77
2023-09-26T09:44:53.079Z,14.77
2023-09-26T09:47:24.526Z,14.82
2023-09-26T09:49:52.734Z,14.87
2023-09-26T09:52:20.973Z,14.91
2023-09-26T09:54:48.698Z,14.99
2023-09-26T09:57:16.631Z,15.04
2023-09-26T09:59:46.571Z,15.04
2023-09-26T10:02:16.752Z,15.14
2023-09-26T10:04:45.840Z,15.16
2023-09-26T10:07:13.266Z,15.24
2023-09-26T10:09:41.644Z,15.26
2023-09-26T10:12:09.335Z,15.31
2023-09-26T10:14:36.107Z,15.40
2023-09-26T10:17:05.933Z,15.44
2023-09-26T10:19:50.591Z,15.49
2023-09-26T10:22:20.883Z,15.51
2023-09-26T10:24:54.871Z,15.60
2023-09-26T10:27:51.776Z,15.65
2023-09-26T10:30:28.207Z,15.72
2023-09-26T10:32:56.383Z,15.78
2023-09-26T10:35:25.450Z,15.85
2023-09-26T10:38:19.430Z,15.88
2023-09-26T10:40:47.336Z,15.94
2023-09-26T10:45:45.775Z,16.04
2023-09-26T10:48:22.217Z,16.12
2023-09-26T10:50:49.839Z,16.16
2023-09-26T10:53:16.467Z,16.20
2023-09-26T10:55:43.364Z,16.28
2023-09-26T10:58:19.571Z,16.31
2023-09-26T11:00:53.678Z,16.35
2023-09-26T11:03:20.895Z,16.40
2023-09-26T11:08:34.472Z,16.51
2023-09-26T11:11:00.978Z,16.59
2023-09-26T11:13:28.080Z,16.64
2023-09-26T11:15:55.990Z,16.69
2023-09-26T11:18:23.717Z,16.71
2023-09-26T11:20:50.933Z,16.78
2023-09-26T11:23:41.623Z,16.82
2023-09-26T11:26:09.563Z,16.89
2023-09-26T11:28:36.587Z,16.92
2023-09-26T11:31:03.643Z,16.98
2023-09-26T11:33:30.648Z,17.02
2023-09-26T11:35:57.726Z,17.06
2023-09-26T11:38:24.452Z,17.11
2023-09-26T11:40:51.081Z,17.12
2023-09-26T11:43:18.543Z,17.20
2023-09-26T11:45:45.192Z,17.24
2023-09-26T11:48:11.807Z,17.30
2023-09-26T11:50:40.891Z,17.33
2023-09-26T11:53:08.344Z,17.37
2023-09-26T11:55:36.812Z,17.41
2023-09-26T11:58:04.432Z,17.45
2023-09-26T12:00:31.102Z,17.49
2023-09-26T12:02:58.370Z,17.56
2023-09-26T12:05:25.057Z,17.59
2023-09-26T12:07:52.624Z,17.62
2023-09-26T12:10:20.381Z,17.67
2023-09-26T12:12:47.436Z,17.71
2023-09-26T12:15:24.451Z,17.76
2023-09-26T12:17:55.965Z,17.79
2023-09-26T12:20:25.622Z,17.83
2023-09-26T12:22:55.012Z,17.88
2023-09-26T12:25:24.008Z,17.90
2023-09-26T12:27:54.671Z,17.93
2023-09-26T12:30:22.038Z,17.98
2023-09-26T12:32:50.495Z,18.02
2023-09-26T12:35:17.693Z,18.07
2023-09-26T12:37:46.945Z,18.08
2023-09-26T12:40:14.304Z,18.14
2023-09-26T12:42:42.371Z,18.14
2023-09-26T12:45:09.995Z,18.21
2023-09-26T12:47:37.169Z,18.21
2023-09-26T12:50:07.144Z,18.27
2023-09-26T12:52:34.162Z,18.30
2023-09-26T12:55:00.818Z,18.32
2023-09-26T12:57:27.434Z,18.38
2023-09-26T12:59:54.720Z,18.41
2023-09-26T13:02:23.898Z,18.41
2023-09-26T13:04:55.903Z,18.47
2023-09-26T13:07:23.448Z,18.49
2023-09-26T13:09:51.684Z,18.52
2023-09-26T13:12:18.791Z,18.55
2023-09-26T13:14:45.325Z,18.54
2023-09-26T13:17:13.648Z,18.57
2023-09-26T13:19:41.791Z,18.63
2023-09-26T13:22:09.693Z,18.65
2023-09-26T13:24:36.790Z,18.68
2023-09-26T13:27:05.013Z,18.70
2023-09-26T13:29:32.340Z,18.69
2023-09-26T13:32:00.659Z,18.71
2023-09-26T13:34:27.461Z,18.78
2023-09-26T13:36:54.124Z,18.78
2023-09-26T13:39:20.598Z,18.83
2023-09-26T13:41:47.268Z,18.85
2023-09-26T13:44:13.848Z,18.87
2023-09-26T13:46:40.834Z,18.90
2023-09-26T13:49:07.377Z,18.94
2023-09-26T13:51:33.951Z,18.97
2023-09-26T13:54:00.395Z,19.01
2023-09-26T13:56:27.717Z,19.02
2023-09-26T13:58:54.243Z,19.02
2023-09-26T14:01:20.760Z,19.06
2023-09-26T14:03:47.832Z,19.00
2023-09-26T14:06:14.578Z,19.10
2023-09-26T14:08:41.509Z,19.10
2023-09-26T14:11:08.136Z,19.16
2023-09-26T14:13:34.737Z,19.14
2023-09-26T14:16:01.399Z,19.20
2023-09-26T14:18:27.946Z,19.24
2023-09-26T14:20:54.501Z,19.26
2023-09-26T14:23:25.569Z,19.27
2023-09-26T14:25:53.196Z,19.29
2023-09-26T14:28:20.101Z,19.34
2023-09-26T14:30:48.423Z,19.35
2023-09-26T14:33:16.720Z,19.36
2023-09-26T14:35:44.276Z,19.39
2023-09-26T14:38:11.332Z,19.41
2023-09-26T14:40:37.975Z,19.42
2023-09-26T14:43:04.983Z,19.42
2023-09-26T14:46:02.456Z,19.45
2023-09-26T14:48:18.113Z,19.48
2023-09-26T14:50:44.674Z,19.49
2023-09-26T14:53:11.255Z,19.50
2023-09-26T14:55:37.813Z,19.53
2023-09-26T14:58:04.483Z,19.53
2023-09-26T15:00:30.929Z,19.57
2023-09-26T15:02:57.586Z,19.58
2023-09-26T15:07:50.717Z,19.62
2023-09-26T15:10:17.182Z,19.63
2023-09-26T15:12:43.767Z,19.64
2023-09-26T15:15:10.676Z,19.65
2023-09-26T15:17:37.211Z,19.67
2023-09-26T15:20:04.034Z,19.68
2023-09-26T15:22:30.663Z,19.66
2023-09-26T15:24:57.387Z,19.71
2023-09-26T15:27:23.951Z,19.72
2023-09-26T15:29:50.503Z,19.71
2023-09-26T15:32:17.153Z,19.72
2023-09-26T15:34:45.215Z,19.73
2023-09-26T15:37:11.715Z,19.76
2023-09-26T15:39:38.205Z,19.74
2023-09-26T15:42:06.072Z,19.73
2023-09-26T15:44:40.895Z,19.76
2023-09-26T15:47:08.250Z,19.76
2023-09-26T15:49:49.221Z,19.77
2023-09-26T15:52:16.889Z,19.79
2023-09-26T15:54:43.370Z,19.79
2023-09-26T15:57:11.331Z,19.81
2023-09-26T15:59:38.055Z,19.79
2023-09-26T16:02:06.192Z,19.80
2023-09-26T16:04:34.363Z,19.81
2023-09-26T16:07:02.786Z,19.82
2023-09-26T16:09:29.445Z,19.81
2023-09-26T16:11:55.984Z,19.81
2023-09-26T16:14:22.597Z,19.81
2023-09-26T16:16:49.267Z,19.80
2023-09-26T16:19:17.084Z,19.80
2023-09-26T16:21:45.068Z,19.82
2023-09-26T16:24:11.583Z,19.81
2023-09-26T16:26:38.104Z,19.80
2023-09-26T16:29:04.754Z,19.80
2023-09-26T16:31:31.534Z,19.80
2023-09-26T16:33:58.127Z,19.80
2023-09-26T16:36:24.804Z,19.80
2023-09-26T16:38:52.699Z,19.80
2023-09-26T16:41:19.319Z,19.78
2023-09-26T16:43:45.990Z,19.77
2023-09-26T16:46:12.547Z,19.76
2023-09-26T16:48:39.173Z,19.76
2023-09-26T16:51:05.785Z,19.75
2023-09-26T16:53:32.741Z,19.74
2023-09-26T16:55:59.337Z,19.74
2023-09-26T16:58:26.034Z,19.72
2023-09-26T17:00:56.020Z,19.71
2023-09-26T17:03:23.045Z,19.67
2023-09-26T17:05:49.750Z,19.63
2023-09-26T17:08:17.181Z,19.64
2023-09-26T17:10:43.917Z,19.66
2023-09-26T17:13:10.453Z,19.62
2023-09-26T17:15:37.209Z,19.63
2023-09-26T17:18:03.759Z,19.61
2023-09-26T17:20:30.517Z,19.57
2023-09-26T17:22:57.055Z,19.57
2023-09-26T17:25:23.610Z,19.54
2023-09-26T17:27:50.066Z,19.52
2023-09-26T17:30:16.635Z,19.51
2023-09-26T17:32:45.584Z,19.50
2023-09-26T17:35:12.631Z,19.46
2023-09-26T17:37:39.336Z,19.45
2023-09-26T17:40:06.591Z,19.42
2023-09-26T17:42:33.100Z,19.42
2023-09-26T17:44:59.821Z,19.40
2023-09-26T17:47:29.712Z,19.38
2023-09-26T17:49:56.689Z,19.34
2023-09-26T17:52:23.273Z,19.30
2023-09-26T17:54:49.831Z,19.29
2023-09-26T17:57:16.413Z,19.26
2023-09-26T17:59:43.192Z,19.21
2023-09-26T18:02:09.899Z,19.26
2023-09-26T18:04:36.469Z,19.22
2023-09-26T18:07:03.391Z,19.20
2023-09-26T18:09:29.920Z,19.17
2023-09-26T18:11:56.390Z,19.14
2023-09-26T18:14:22.925Z,19.15
2023-09-26T18:16:49.460Z,19.07
2023-09-26T18:19:16.268Z,19.09
2023-09-26T18:21:42.844Z,19.10
2023-09-26T18:24:09.388Z,19.07
2023-09-26T18:26:35.839Z,19.03
2023-09-26T18:29:02.732Z,19.01
2023-09-26T18:31:29.551Z,19.02
2023-09-26T18:33:56.212Z,19.00
2023-09-26T18:36:24.549Z,18.91
2023-09-26T18:38:51.030Z,18.95
2023-09-26T18:41:19.320Z,18.84
2023-09-26T18:43:46.478Z,18.88
2023-09-26T18:46:13.571Z,18.86
2023-09-26T18:48:41.314Z,18.84
2023-09-26T18:51:07.963Z,18.78
2023-09-26T18:53:35.517Z,18.77
2023-09-26T18:56:02.537Z,18.74
2023-09-26T18:58:29.131Z,18.74
2023-09-26T19:00:55.670Z,18.74
2023-09-26T19:03:22.431Z,18.68
2023-09-26T19:05:51.164Z,18.66
2023-09-26T19:08:17.749Z,18.66
2023-09-26T19:10:44.811Z,18.65
2023-09-26T19:13:11.424Z,18.61
2023-09-26T19:15:37.949Z,18.59
2023-09-26T19:18:04.601Z,18.56
2023-09-26T19:20:32.760Z,18.55
2023-09-26T19:23:00.061Z,18.50
2023-09-26T19:25:28.095Z,18.49
2023-09-26T19:27:54.786Z,18.45
2023-09-26T19:30:21.389Z,18.48
2023-09-26T19:32:48.008Z,18.44
2023-09-26T19:35:14.736Z,18.40
2023-09-26T19:37:41.404Z,18.38
2023-09-26T19:40:08.276Z,18.39
2023-09-26T19:42:34.893Z,18.37
2023-09-26T19:45:01.494Z,18.33
2023-09-26T19:47:28.557Z,18.32
2023-09-26T19:49:55.492Z,18.30
2023-09-26T19:52:22.160Z,18.25
2023-09-26T19:54:48.838Z,18.25
2023-09-26T19:57:15.458Z,18.21
2023-09-26T19:59:44.266Z,18.20
2023-09-26T20:02:11.274Z,18.16
2023-09-26T20:04:37.926Z,18.18
2023-09-26T20:07:04.674Z,18.16
2023-09-26T20:09:31.231Z,18.13
2023-09-26T20:11:57.734Z,18.12
2023-09-26T20:14:24.379Z,18.10
2023-09-26T20:16:51.006Z,18.00
2023-09-26T20:19:18.022Z,18.05
2023-09-26T20:21:44.489Z,18.03
2023-09-26T20:24:11.121Z,18.02
2023-09-26T20:26:37.732Z,17.98
2023-09-26T20:29:04.291Z,17.97
2023-09-26T20:31:30.903Z,17.96
2023-09-26T20:33:58.473Z,17.92
2023-09-26T20:36:25.043Z,17.89
2023-09-26T20:38:51.686Z,17.90
2023-09-26T20:41:18.403Z,17.86
2023-09-26T20:43:45.326Z,17.84
2023-09-26T20:46:12.046Z,17.80
2023-09-26T20:48:38.877Z,17.82
2023-09-26T20:51:06.795Z,17.80
2023-09-26T20:53:34.027Z,17.78
2023-09-26T20:56:07.841Z,17.75
2023-09-26T20:58:35.318Z,17.72
2023-09-26T21:01:13.705Z,17.68
2023-09-26T21:03:41.070Z,17.67
2023-09-26T21:06:12.710Z,17.69
2023-09-26T21:08:39.906Z,17.62
2023-09-26T21:11:06.731Z,17.61
2023-09-26T21:13:33.620Z,17.59
2023-09-26T21:16:15.173Z,17.55
2023-09-26T21:18:48.325Z,17.53
2023-09-26T21:21:19.403Z,17.54
2023-09-26T21:23:47.908Z,17.49
2023-09-26T21:26:16.258Z,17.46
2023-09-26T21:28:43.739Z,17.48
2023-09-26T21:31:10.304Z,17.45
2023-09-26T21:33:38.128Z,17.43
2023-09-26T21:36:05.959Z,17.42
2023-09-26T21:38:33.140Z,17.37
2023-09-26T21:41:00.174Z,17.37
2023-09-26T21:43:27.306Z,17.36
2023-09-26T21:45:54.224Z,17.35
2023-09-26T21:48:20.866Z,17.31
2023-09-26T21:50:47.466Z,17.29
2023-09-26T21:53:14.257Z,17.31
2023-09-26T21:55:40.799Z,17.27
2023-09-26T21:58:07.302Z,17.26
2023-09-26T22:00:34.871Z,17.23
2023-09-26T22:03:05.699Z,17.21
2023-09-26T22:05:32.390Z,17.22
2023-09-26T22:08:00.446Z,17.20
2023-09-26T22:10:28.739Z,17.14
2023-09-26T22:12:56.165Z,17.16
2023-09-26T22:15:23.010Z,17.14
2023-09-26T22:17:49.650Z,17.13
2023-09-26T22:20:18.790Z,17.11
2023-09-26T22:22:46.421Z,17.09
2023-09-26T22:25:14.900Z,17.08
2023-09-26T22:27:41.738Z,17.03
2023-09-26T22:30:10.638Z,17.03
2023-09-26T22:32:38.313Z,17.03
2023-09-26T22:35:05.584Z,17.01
2023-09-26T22:37:34.481Z,16.99
2023-09-26T22:40:01.114Z,16.97
2023-09-26T22:42:27.744Z,16.93
2023-09-26T22:44:54.922Z,16.93
2023-09-26T22:47:21.753Z,16.92
2023-09-26T22:49:48.484Z,16.88
2023-09-26T22:52:15.355Z,16.89
2023-09-26T22:54:41.880Z,16.83
2023-09-26T22:57:08.435Z,16.83
2023-09-26T22:59:35.020Z,16.83
2023-09-26T23:02:02.067Z,16.82
2023-09-26T23:04:28.544Z,16.80
2023-09-26T23:06:55.726Z,16.82
2023-09-26T23:09:22.722Z,16.76
2023-09-26T23:11:49.233Z,16.78
2023-09-26T23:14:15.933Z,16.75
2023-09-26T23:16:42.611Z,16.75
2023-09-26T23:19:09.234Z,16.75
2023-09-26T23:21:35.721Z,16.73
2023-09-26T23:24:03.149Z,16.72
2023-09-26T23:26:29.698Z,16.71
2023-09-26T23:28:56.560Z,16.70
2023-09-26T23:31:23.163Z,16.69
2023-09-26T23:33:51.175Z,16.66
2023-09-26T23:36:19.009Z,16.62
2023-09-26T23:38:45.602Z,16.65
2023-09-26T23:41:12.382Z,16.61
2023-09-26T23:43:39.010Z,16.63
2023-09-26T23:46:06.235Z,16.63
2023-09-26T23:48:33.225Z,16.62
2023-09-26T23:51:00.229Z,16.58
2023-09-26T23:53:27.563Z,16.61
2023-09-26T23:55:54.621Z,16.58
2023-09-26T23:58:21.579Z,16.56
